createdAt,value
2023-05-24T00:04:30.641Z,20.13
2023-05-24T00:09:33.436Z,20.20
2023-05-24T00:14:35.833Z,20.24
2023-05-24T00:19:38.844Z,19.95
2023-05-24T00:24:41.226Z,19.83
2023-05-24T00:29:43.692Z,19.74
2023-05-24T00:34:45.893Z,19.80
2023-05-24T00:39:48.145Z,19.49
2023-05-24T00:44:50.394Z,19.40
2023-05-24T00:49:52.711Z,19.29
2023-05-24T00:54:55.043Z,19.34
2023-05-24T00:59:57.616Z,19.30
2023-05-24T01:05:00.462Z,19.43
2023-05-24T01:10:10.740Z,19.41
2023-05-24T01:15:26.001Z,19.16
2023-05-24T01:20:32.900Z,19.17
2023-05-24T01:25:53.470Z,19.16
2023-05-24T01:30:56.617Z,19.24
2023-05-24T01:35:58.983Z,19.28
2023-05-24T01:41:11.813Z,19.32
2023-05-24T01:46:17.055Z,19.58
2023-05-24T01:51:23.172Z,19.81
2023-05-24T01:56:28.007Z,19.83
2023-05-24T02:01:31.125Z,19.81
2023-05-24T02:06:33.490Z,20.00
2023-05-24T02:11:35.873Z,20.08
2023-05-24T02:16:43.150Z,19.94
2023-05-24T02:21:45.491Z,19.88
2023-05-24T02:26:50.112Z,19.62
2023-05-24T02:31:56.744Z,19.19
2023-05-24T02:36:59.368Z,19.38
2023-05-24T02:42:02.008Z,19.49
2023-05-24T02:47:04.314Z,19.42
2023-05-24T02:52:06.748Z,19.20
2023-05-24T02:57:09.035Z,19.12
2023-05-24T03:02:14.171Z,19.16
2023-05-24T03:07:16.556Z,19.25
2023-05-24T03:12:18.802Z,19.27
2023-05-24T03:17:21.139Z,19.18
2023-05-24T03:22:23.465Z,19.25
2023-05-24T03:27:25.786Z,19.33
2023-05-24T03:32:28.183Z,19.25
2023-05-24T03:37:30.515Z,19.28
2023-05-24T03:42:32.901Z,19.29
2023-05-24T03:47:35.262Z,19.20
2023-05-24T03:52:37.569Z,19.28
2023-05-24T03:57:39.768Z,19.45
2023-05-24T04:02:42.575Z,19.35
2023-05-24T04:07:46.769Z,19.43
2023-05-24T04:12:49.113Z,19.47
2023-05-24T04:17:55.461Z,19.62
2023-05-24T04:22:57.976Z,19.50
2023-05-24T04:28:00.736Z,19.82
2023-05-24T04:33:04.211Z,19.84
2023-05-24T04:38:06.592Z,19.84
2023-05-24T04:43:11.370Z,19.66
2023-05-24T04:48:13.599Z,19.78
2023-05-24T04:53:15.881Z,19.84
2023-05-24T04:58:18.233Z,19.73
2023-05-24T05:03:20.593Z,19.84
2023-05-24T05:08:22.867Z,19.98
2023-05-24T05:13:25.128Z,20.04
2023-05-24T05:18:27.306Z,19.99
2023-05-24T05:23:32.667Z,20.03
2023-05-24T05:28:35.035Z,20.05
2023-05-24T05:33:37.330Z,20.34
2023-05-24T05:38:40.791Z,20.44
2023-05-24T05:43:43.203Z,20.22
2023-05-24T05:48:46.437Z,20.35
2023-05-24T05:53:48.900Z,20.52
2023-05-24T05:58:51.287Z,20.36
2023-05-24T06:03:53.764Z,20.66
2023-05-24T06:08:56.395Z,20.90
2023-05-24T06:13:58.693Z,20.79
2023-05-24T06:19:06.081Z,21.07
2023-05-24T06:24:10.236Z,21.25
2023-05-24T06:29:14.342Z,21.46
2023-05-24T06:34:21.769Z,21.39
2023-05-24T06:39:25.880Z,21.66
2023-05-24T06:44:34.884Z,21.85
2023-05-24T06:49:37.524Z,21.98
2023-05-24T06:54:39.777Z,22.14
2023-05-24T06:59:42.143Z,22.16
2023-05-24T07:04:45.314Z,22.37
2023-05-24T07:09:48.000Z,22.47
2023-05-24T07:14:50.299Z,22.43
2023-05-24T07:19:52.945Z,22.52
2023-05-24T07:24:56.352Z,22.76
2023-05-24T07:29:59.199Z,22.91
2023-05-24T07:35:01.524Z,22.99
2023-05-24T07:40:05.062Z,23.09
2023-05-24T07:45:11.750Z,23.27
2023-05-24T07:50:14.043Z,23.40
2023-05-24T07:55:16.561Z,23.55
2023-05-24T08:00:20.551Z,23.77
2023-05-24T08:05:22.890Z,23.96
2023-05-24T08:10:25.672Z,24.04
2023-05-24T08:15:27.892Z,24.15
2023-05-24T08:20:30.240Z,24.52
2023-05-24T08:25:33.361Z,24.68
2023-05-24T08:30:35.687Z,24.93
2023-05-24T08:35:38.162Z,25.02
2023-05-24T08:40:40.439Z,25.17
2023-05-24T08:45:43.801Z,25.26
2023-05-24T08:50:47.375Z,25.33
2023-05-24T08:55:53.682Z,25.54
2023-05-24T09:00:56.289Z,25.35
2023-05-24T09:05:58.986Z,25.92
2023-05-24T09:11:04.003Z,26.18
2023-05-24T09:16:06.881Z,26.38
2023-05-24T09:21:11.140Z,26.63
2023-05-24T09:26:13.856Z,26.73
2023-05-24T09:31:16.085Z,26.87
2023-05-24T09:36:18.766Z,27.20
2023-05-24T09:41:21.048Z,27.24
2023-05-24T09:46:23.478Z,27.50
2023-05-24T09:51:26.223Z,27.61
2023-05-24T09:56:28.954Z,27.95
2023-05-24T10:01:34.168Z,28.07
2023-05-24T10:06:40.559Z,28.17
2023-05-24T10:11:43.556Z,28.31
2023-05-24T10:16:46.039Z,28.57
2023-05-24T10:21:50.079Z,28.87
2023-05-24T10:26:54.202Z,28.88
2023-05-24T10:31:57.362Z,28.83
2023-05-24T10:37:00.006Z,28.95
2023-05-24T10:42:09.577Z,29.30
2023-05-24T10:47:14.456Z,29.38
2023-05-24T10:52:16.801Z,29.68
2023-05-24T10:57:25.013Z,29.95
2023-05-24T11:02:36.156Z,29.80
2023-05-24T11:07:45.214Z,30.13
2023-05-24T11:12:48.669Z,30.30
2023-05-24T11:18:13.197Z,30.27
2023-05-24T11:23:16.539Z,30.49
2023-05-24T11:28:19.396Z,30.39
2023-05-24T11:33:23.901Z,30.25
2023-05-24T11:38:27.915Z,30.58
2023-05-24T11:43:31.949Z,30.93
2023-05-24T11:48:34.409Z,31.33
2023-05-24T11:53:36.708Z,31.26
2023-05-24T11:58:53.121Z,31.08
2023-05-24T12:03:55.952Z,31.34
2023-05-24T12:08:58.315Z,31.59
2023-05-24T12:14:00.866Z,32.19
2023-05-24T12:19:09.467Z,32.46
2023-05-24T12:24:20.039Z,32.60
2023-05-24T12:29:22.717Z,32.84
2023-05-24T12:34:25.143Z,33.01
2023-05-24T12:39:35.815Z,33.01
2023-05-24T12:44:39.093Z,32.94
2023-05-24T12:49:41.478Z,32.93
2023-05-24T12:54:43.838Z,32.73
2023-05-24T12:59:46.378Z,32.53
2023-05-24T13:04:48.986Z,32.73
2023-05-24T13:09:51.506Z,33.35
2023-05-24T13:14:54.305Z,33.36
2023-05-24T13:19:57.882Z,33.66
2023-05-24T13:25:00.153Z,33.96
2023-05-24T13:30:03.146Z,33.61
2023-05-24T13:35:08.290Z,33.39
2023-05-24T13:40:11.460Z,33.47
2023-05-24T13:45:13.929Z,33.81
2023-05-24T13:50:16.567Z,33.88
2023-05-24T13:55:19.055Z,33.55
2023-05-24T14:00:22.044Z,33.16
2023-05-24T14:05:27.799Z,33.10
2023-05-24T14:10:30.712Z,32.71
2023-05-24T14:15:34.446Z,32.34
2023-05-24T14:20:38.482Z,31.87
2023-05-24T14:25:42.699Z,31.51
2023-05-24T14:30:45.575Z,31.31
2023-05-24T14:35:48.668Z,31.35
2023-05-24T14:40:51.588Z,31.64
2023-05-24T14:45:54.203Z,32.42
2023-05-24T14:50:56.660Z,32.66
2023-05-24T14:55:59.107Z,32.48
2023-05-24T15:01:01.790Z,32.91
2023-05-24T15:06:05.491Z,33.06
2023-05-24T15:11:08.147Z,32.66
2023-05-24T15:16:10.488Z,32.10
2023-05-24T15:21:12.751Z,31.64
2023-05-24T15:26:15.033Z,31.29
2023-05-24T15:31:18.297Z,31.22
2023-05-24T15:36:20.751Z,31.05
2023-05-24T15:41:23.216Z,30.80
2023-05-24T15:46:25.812Z,30.55
2023-05-24T15:56:33.364Z,30.19
2023-05-24T16:01:35.822Z,30.25
2023-05-24T16:06:38.726Z,30.12
2023-05-24T16:11:41.443Z,30.10
2023-05-24T16:16:45.043Z,30.35
2023-05-24T16:21:47.362Z,30.72
2023-05-24T16:26:49.629Z,31.01
2023-05-24T16:31:52.399Z,30.91
2023-05-24T16:36:54.762Z,30.53
2023-05-24T16:41:58.207Z,30.29
2023-05-24T16:47:02.743Z,30.02
2023-05-24T16:52:05.242Z,29.77
2023-05-24T16:57:08.012Z,29.47
2023-05-24T17:02:10.309Z,29.16
2023-05-24T17:07:12.608Z,28.93
2023-05-24T17:12:15.310Z,28.63
2023-05-24T17:17:17.669Z,27.89
2023-05-24T17:22:20.926Z,27.94
2023-05-24T17:27:23.153Z,27.93
2023-05-24T17:32:25.390Z,27.87
2023-05-24T17:37:27.690Z,27.61
2023-05-24T17:42:30.031Z,27.57
2023-05-24T17:47:32.333Z,27.59
2023-05-24T17:52:34.626Z,27.46
2023-05-24T17:57:36.846Z,27.35
2023-05-24T18:02:39.123Z,27.20
2023-05-24T18:07:41.459Z,26.57
2023-05-24T18:12:44.126Z,25.47
2023-05-24T18:17:46.560Z,25.43
2023-05-24T18:22:48.834Z,25.60
2023-05-24T18:27:51.224Z,25.99
2023-05-24T18:33:05.343Z,26.11
2023-05-24T18:38:09.590Z,26.18
2023-05-24T18:43:14.264Z,26.22
2023-05-24T18:48:16.781Z,26.15
2023-05-24T18:53:19.103Z,26.17
2023-05-24T18:58:21.435Z,26.02
2023-05-24T19:03:23.859Z,25.92
2023-05-24T19:08:26.420Z,25.98
2023-05-24T19:13:28.859Z,25.64
2023-05-24T19:18:31.270Z,25.57
2023-05-24T19:23:33.636Z,25.44
2023-05-24T19:28:38.271Z,25.21
2023-05-24T19:33:52.041Z,25.00
2023-05-24T19:39:01.750Z,24.18
2023-05-24T19:44:04.196Z,24.33
2023-05-24T19:49:06.622Z,23.76
2023-05-24T19:54:09.700Z,24.02
2023-05-24T19:59:12.645Z,24.29
2023-05-24T20:04:15.376Z,24.20
2023-05-24T20:09:19.199Z,24.24
2023-05-24T20:14:21.723Z,24.13
2023-05-24T20:19:24.197Z,24.12
2023-05-24T20:24:26.569Z,24.12
2023-05-24T20:29:29.090Z,24.09
2023-05-24T20:34:31.489Z,23.82
2023-05-24T20:39:33.925Z,24.02
2023-05-24T20:44:36.287Z,23.80
2023-05-24T20:49:38.691Z,23.57
2023-05-24T20:54:41.108Z,23.42
2023-05-24T20:59:43.603Z,23.57
2023-05-24T21:04:46.106Z,23.57
2023-05-24T21:09:48.491Z,23.39
2023-05-24T21:14:54.332Z,23.99
2023-05-24T21:19:56.828Z,23.91
2023-05-24T21:24:59.371Z,23.77
2023-05-24T21:30:01.838Z,23.68
2023-05-24T21:35:04.368Z,23.70
2023-05-24T21:40:16.190Z,22.91
2023-05-24T21:45:18.687Z,23.63
2023-05-24T21:50:21.124Z,23.12
2023-05-24T21:55:23.431Z,22.88
2023-05-24T22:00:27.656Z,22.81
2023-05-24T22:05:30.139Z,22.91
2023-05-24T22:10:32.577Z,22.58
2023-05-24T22:15:34.972Z,23.05
2023-05-24T22:20:37.432Z,22.99
2023-05-24T22:25:39.797Z,23.01
2023-05-24T22:30:42.191Z,22.47
2023-05-24T22:35:44.798Z,22.92
2023-05-24T22:40:47.543Z,22.61
2023-05-24T22:45:50.105Z,22.67
2023-05-24T22:50:58.016Z,22.87
2023-05-24T22:56:00.352Z,22.56
2023-05-24T23:01:02.788Z,22.16
2023-05-24T23:06:05.941Z,22.30
2023-05-24T23:11:10.915Z,22.39
2023-05-24T23:16:13.508Z,22.78
2023-05-24T23:21:17.145Z,22.50
2023-05-24T23:26:20.040Z,22.37
2023-05-24T23:31:22.990Z,22.33
2023-05-24T23:36:25.450Z,21.97
2023-05-24T23:41:27.773Z,21.93
2023-05-24T23:46:30.746Z,21.91
2023-05-24T23:51:36.251Z,21.64
2023-05-24T23:56:41.390Z,21.92
